createdAt,value
2022-11-04T00:00:57.883Z,1014.1
2022-11-04T00:06:16.042Z,1014.1
2022-11-04T00:11:55.567Z,1014.1
2022-11-04T00:17:31.803Z,1014.1
2022-11-04T00:23:02.484Z,1014
2022-11-04T00:28:43.615Z,1014.1
2022-11-04T00:34:21.054Z,1014.1
2022-11-04T00:40:00.042Z,1014.3
2022-11-04T00:45:27.766Z,1014.3
2022-11-04T00:50:47.993Z,1014.3
2022-11-04T00:56:28.091Z,1014.2
2022-11-04T01:01:50.411Z,1014.2
2022-11-04T01:07:31.767Z,1014.1
2022-11-04T01:13:19.646Z,1014.1
2022-11-04T01:18:41.987Z,1014
2022-11-04T01:24:10.860Z,1014.1
2022-11-04T01:29:38.605Z,1014
2022-11-04T01:35:27.253Z,1014
2022-11-04T01:40:53.247Z,1014.1
2022-11-04T01:46:37.816Z,1014
2022-11-04T01:52:13.615Z,1013.9
2022-11-04T01:57:54.073Z,1014
2022-11-04T02:03:01.938Z,1013.9
2022-11-04T02:08:41.470Z,1013.8
2022-11-04T02:14:28.907Z,1013.7
2022-11-04T02:19:56.228Z,1013.7
2022-11-04T02:25:29.829Z,1013.5
2022-11-04T02:30:57.400Z,1013.4
2022-11-04T02:36:40.692Z,1013.3
2022-11-04T02:42:02.854Z,1013.3
2022-11-04T02:47:50.768Z,1013.3
2022-11-04T02:53:06.826Z,1013.3
2022-11-04T02:58:57.746Z,1013.2
2022-11-04T03:04:20.160Z,1013
2022-11-04T03:09:53.045Z,1013
2022-11-04T03:15:20.344Z,1012.8
2022-11-04T03:20:59.386Z,1012.7
2022-11-04T03:26:34.558Z,1012.7
2022-11-04T03:31:54.965Z,1012.7
2022-11-04T03:37:31.236Z,1012.6
2022-11-04T03:43:12.891Z,1012.7
2022-11-04T03:48:37.813Z,1012.7
2022-11-04T03:54:07.903Z,1012.9
2022-11-04T03:59:38.757Z,1012.8
2022-11-04T04:05:14.472Z,1012.8
2022-11-04T04:11:02.003Z,1012.8
2022-11-04T04:16:27.187Z,1012.6
2022-11-04T04:21:57.308Z,1012.9
2022-11-04T04:27:43.967Z,1012.8
2022-11-04T04:32:57.636Z,1012.8
2022-11-04T04:38:24.451Z,1012.7
2022-11-04T04:44:07.586Z,1012.7
2022-11-04T04:49:43.021Z,1012.7
2022-11-04T04:55:00.253Z,1012.8
2022-11-04T05:00:55.100Z,1012.7
2022-11-04T05:06:21.857Z,1012.7
2022-11-04T05:11:48.190Z,1012.7
2022-11-04T05:17:25.406Z,1012.6
2022-11-04T05:22:45.925Z,1012.6
2022-11-04T05:28:43.665Z,1012.6
2022-11-04T05:34:06.781Z,1012.4
2022-11-04T05:39:38.324Z,1012.2
2022-11-04T05:45:16.735Z,1012.3
2022-11-04T05:50:25.762Z,1012.1
2022-11-04T05:56:23.407Z,1012.2
2022-11-04T06:01:29.928Z,1012.3
2022-11-04T06:07:28.941Z,1012.2
2022-11-04T06:12:55.345Z,1012.2
2022-11-04T06:18:08.418Z,1012.3
2022-11-04T06:24:07.219Z,1012.2
2022-11-04T06:29:36.078Z,1012.2
2022-11-04T06:35:04.866Z,1012.1
2022-11-04T06:40:17.767Z,1012.3
2022-11-04T06:46:03.065Z,1012.2
2022-11-04T06:51:41.536Z,1012.2
2022-11-04T06:56:59.474Z,1012.2
2022-11-04T07:02:39.768Z,1012.3
2022-11-04T07:08:01.655Z,1012.2
2022-11-04T07:13:59.779Z,1012.2
2022-11-04T07:19:28.179Z,1012.1
2022-11-04T07:25:04.398Z,1012
2022-11-04T07:30:34.031Z,1012
2022-11-04T07:35:44.505Z,1012
2022-11-04T07:41:42.058Z,1012
2022-11-04T07:46:47.037Z,1012
2022-11-04T07:52:41.524Z,1011.8
2022-11-04T07:58:06.479Z,1011.8
2022-11-04T08:03:35.858Z,1011.7
2022-11-04T08:14:49.997Z,1011.5
2022-11-04T08:20:03.811Z,1011.3
2022-11-04T08:25:42.080Z,1011.2
2022-11-04T08:31:37.460Z,1011.1
2022-11-04T08:36:52.524Z,1011
2022-11-04T08:42:16.875Z,1011
2022-11-04T08:47:50.135Z,1010.8
2022-11-04T08:53:31.397Z,1010.8
2022-11-04T08:59:11.227Z,1010.8
2022-11-04T09:04:41.988Z,1010.8
2022-11-04T09:10:12.320Z,1010.5
2022-11-04T09:15:50.115Z,1010.4
2022-11-04T09:21:26.529Z,1010.3
2022-11-04T09:26:58.949Z,1010.2
2022-11-04T09:32:31.089Z,1010.3
2022-11-04T09:38:07.379Z,1010.2
2022-11-04T09:43:50.036Z,1010.3
2022-11-04T09:49:15.417Z,1010.4
2022-11-04T09:54:39.946Z,1010.5
2022-11-04T10:00:26.017Z,1010.5
2022-11-04T10:06:01.902Z,1010.5
2022-11-04T10:11:33.715Z,1010.5
2022-11-04T10:16:53.297Z,1010.5
2022-11-04T10:22:24.466Z,1010.4
2022-11-04T10:28:13.959Z,1010.4
2022-11-04T10:33:51.888Z,1010.2
2022-11-04T10:39:08.555Z,1010.2
2022-11-04T10:44:36.777Z,1010.1
2022-11-04T10:55:46.767Z,1009.9
2022-11-04T11:01:24.342Z,1009.8
2022-11-04T11:06:48.869Z,1009.9
2022-11-04T11:12:49.836Z,1009.9
2022-11-04T11:18:07.005Z,1009.8
2022-11-04T11:23:43.206Z,1009.8
2022-11-04T11:29:05.964Z,1009.8
2022-11-04T11:34:52.970Z,1009.8
2022-11-04T11:40:27.898Z,1009.7
2022-11-04T11:46:06.942Z,1009.7
2022-11-04T11:51:12.187Z,1009.8
2022-11-04T11:57:16.679Z,1009.9
2022-11-04T12:02:22.366Z,1009.8
2022-11-04T12:13:46.269Z,1009.9
2022-11-04T12:19:12.679Z,1009.9
2022-11-04T12:24:36.377Z,1009.8
2022-11-04T12:30:26.065Z,1009.9
2022-11-04T12:35:51.732Z,1009.9
2022-11-04T12:47:02.165Z,1010.6
2022-11-04T12:52:24.943Z,1010.7
2022-11-04T12:58:09.909Z,1010.8
2022-11-04T13:03:39.478Z,1010.9
2022-11-04T13:09:12.235Z,1010.9
2022-11-04T13:14:41.884Z,1011
2022-11-04T13:20:11.384Z,1011
2022-11-04T13:25:56.043Z,1011.1
2022-11-04T13:31:29.103Z,1011
2022-11-04T13:36:53.167Z,1011.1
2022-11-04T13:42:32.300Z,1011.1
2022-11-04T13:48:12.202Z,1011.2
2022-11-04T13:53:28.370Z,1011.3
2022-11-04T13:59:04.937Z,1011.3
2022-11-04T14:04:53.437Z,1011.6
2022-11-04T14:10:08.715Z,1011.5
2022-11-04T14:15:48.006Z,1011.6
2022-11-04T14:21:28.275Z,1011.7
2022-11-04T14:26:52.009Z,1011.8
2022-11-04T14:32:33.662Z,1011.8
2022-11-04T14:37:58.342Z,1011.8
2022-11-04T14:43:47.527Z,1011.9
2022-11-04T14:49:19.290Z,1012
2022-11-04T14:54:49.480Z,1012.2
2022-11-04T15:00:21.768Z,1012.3
2022-11-04T15:05:37.272Z,1012.4
2022-11-04T15:11:23.011Z,1012.4
2022-11-04T15:17:04.439Z,1012.5
2022-11-04T15:22:31.816Z,1012.5
2022-11-04T15:27:53.937Z,1012.5
2022-11-04T15:33:29.799Z,1012.7
2022-11-04T15:39:04.372Z,1012.6
2022-11-04T15:44:27.536Z,1012.8
2022-11-04T15:50:00.006Z,1012.9
2022-11-04T15:55:45.798Z,1012.8
2022-11-04T16:01:25.468Z,1013
2022-11-04T16:07:02.093Z,1013.1
2022-11-04T16:12:32.655Z,1013.1
2022-11-04T16:17:57.695Z,1013.2
2022-11-04T16:23:26.820Z,1013.2
2022-11-04T16:29:12.802Z,1013.3
2022-11-04T16:34:44.626Z,1013.5
2022-11-04T16:40:18.582Z,1013.6
2022-11-04T16:45:40.149Z,1013.6
2022-11-04T16:51:10.728Z,1013.8
2022-11-04T16:56:37.928Z,1013.9
2022-11-04T17:02:22.485Z,1014.1
2022-11-04T17:08:04.302Z,1014.2
2022-11-04T17:13:17.975Z,1014.2
2022-11-04T17:19:13.222Z,1014.4
2022-11-04T17:24:20.740Z,1014.5
2022-11-04T17:30:09.292Z,1014.6
2022-11-04T17:35:33.214Z,1014.7
2022-11-04T17:41:12.382Z,1014.7
2022-11-04T17:46:32.115Z,1014.8
2022-11-04T17:52:27.322Z,1014.9
2022-11-04T17:57:54.000Z,1015
2022-11-04T18:03:30.401Z,1015.1
2022-11-04T18:08:53.493Z,1015.2
2022-11-04T18:14:22.608Z,1015.3
2022-11-04T18:19:50.393Z,1015.5
2022-11-04T18:25:35.583Z,1015.6
2022-11-04T18:31:19.972Z,1015.5
2022-11-04T18:36:25.773Z,1015.6
2022-11-04T18:42:03.558Z,1016
2022-11-04T18:47:41.863Z,1016
2022-11-04T18:53:30.082Z,1016.1
2022-11-04T18:58:51.137Z,1016.3
2022-11-04T19:04:28.370Z,1016.5
2022-11-04T19:09:56.763Z,1016.5
2022-11-04T19:15:35.977Z,1016.5
2022-11-04T19:21:08.839Z,1016.5
2022-11-04T19:26:48.920Z,1016.5
2022-11-04T19:31:56.193Z,1016.6
2022-11-04T19:37:52.554Z,1016.7
2022-11-04T19:43:17.041Z,1016.8
2022-11-04T19:48:41.827Z,1016.9
2022-11-04T19:54:29.555Z,1017
2022-11-04T19:59:50.799Z,1017
2022-11-04T20:05:24.887Z,1017.1
2022-11-04T20:10:50.250Z,1017.1
2022-11-04T20:16:36.007Z,1017.2
2022-11-04T20:21:50.456Z,1017.4
2022-11-04T20:27:19.463Z,1017.4
2022-11-04T20:33:10.531Z,1017.6
2022-11-04T20:38:50.168Z,1017.7
2022-11-04T20:44:13.211Z,1017.8
2022-11-04T20:49:34.216Z,1018
2022-11-04T20:55:22.138Z,1018.1
2022-11-04T21:00:33.838Z,1018.2
2022-11-04T21:06:27.176Z,1018.2
2022-11-04T21:11:45.765Z,1018.3
2022-11-04T21:17:18.828Z,1018.4
2022-11-04T21:22:46.112Z,1018.4
2022-11-04T21:28:18.606Z,1018.5
2022-11-04T21:33:50.357Z,1018.5
2022-11-04T21:39:33.738Z,1018.7
2022-11-04T21:44:55.771Z,1018.8
2022-11-04T21:50:29.085Z,1018.8
2022-11-04T21:55:56.673Z,1018.8
2022-11-04T22:01:47.864Z,1018.9
2022-11-04T22:07:08.837Z,1018.9
2022-11-04T22:12:54.083Z,1019
2022-11-04T22:18:22.786Z,1019.1
2022-11-04T22:29:27.017Z,1019.1
2022-11-04T22:35:06.888Z,1019.2
2022-11-04T22:40:16.920Z,1019.1
2022-11-04T22:46:10.211Z,1019.1
2022-11-04T22:51:28.678Z,1019.2
2022-11-04T22:57:01.999Z,1019.3
2022-11-04T23:02:53.506Z,1019.2
2022-11-04T23:08:14.610Z,1019.3
2022-11-04T23:13:52.952Z,1019.3
2022-11-04T23:19:05.358Z,1019.3
2022-11-04T23:24:52.182Z,1019.4
2022-11-04T23:30:22.205Z,1019.3
2022-11-04T23:36:04.882Z,1019.4
2022-11-04T23:41:32.522Z,1019.5
2022-11-04T23:46:58.191Z,1019.5
2022-11-04T23:52:45.301Z,1019.6
2022-11-04T23:58:17.369Z,1019.6
